sensor_id;sensor_type;location;lat;lon;timestamp;pressure;altitude;pressure_sealevel;temperature;humidity
67052;BME280;53957;47.222;18.670;2023-03-22T06:29:51;100222.94;;;7.53;100.00
67052;BME280;53957;47.222;18.670;2023-03-22T06:32:58;100231.19;;;7.78;100.00
67052;BME280;53957;47.222;18.670;2023-03-22T06:36:03;100236.03;;;8.01;100.00
67052;BME280;53957;47.222;18.670;2023-03-22T06:39:07;100232.56;;;8.32;100.00
67052;BME280;53957;47.222;18.670;2023-03-22T06:42:13;100233.37;;;8.27;100.00
67052;BME280;53957;47.222;18.670;2023-03-22T06:45:22;100232.84;;;8.51;100.00
67052;BME280;53957;47.222;18.670;2023-03-22T06:49:05;100231.50;;;8.07;100.00
67052;BME280;53957;47.222;18.670;2023-03-22T06:52:15;100231.78;;;8.57;100.00
67052;BME280;53957;47.222;18.670;2023-03-22T06:55:18;100228.00;;;8.89;100.00
67052;BME280;53957;47.222;18.670;2023-03-22T06:58:27;100238.06;;;8.92;100.00
67052;BME280;53957;47.222;18.670;2023-03-22T07:01:30;100248.75;;;8.82;100.00
67052;BME280;53957;47.222;18.670;2023-03-22T07:04:52;100252.44;;;9.01;100.00
67052;BME280;53957;47.222;18.670;2023-03-22T07:07:55;100249.12;;;9.30;100.00
67052;BME280;53957;47.222;18.670;2023-03-22T07:11:08;100263.31;;;9.71;100.00
67052;BME280;53957;47.222;18.670;2023-03-22T07:14:12;100254.84;;;9.58;100.00
67052;BME280;53957;47.222;18.670;2023-03-22T07:17:32;100262.28;;;9.61;100.00
67052;BME280;53957;47.222;18.670;2023-03-22T07:20:55;100261.56;;;9.45;100.00
67052;BME280;53957;47.222;18.670;2023-03-22T07:23:59;100252.91;;;9.19;100.00
67052;BME280;53957;47.222;18.670;2023-03-22T07:27:06;100259.50;;;9.27;100.00
67052;BME280;53957;47.222;18.670;2023-03-22T07:30:10;100261.09;;;9.83;100.00
67052;BME280;53957;47.222;18.670;2023-03-22T07:33:15;100266.06;;;10.00;100.00
67052;BME280;53957;47.222;18.670;2023-03-22T07:36:18;100264.88;;;9.77;100.00
67052;BME280;53957;47.222;18.670;2023-03-22T07:39:27;100267.50;;;9.82;100.00
67052;BME280;53957;47.222;18.670;2023-03-22T07:42:36;100275.63;;;10.36;100.00
67052;BME280;53957;47.222;18.670;2023-03-22T07:45:41;100266.59;;;9.97;100.00
67052;BME280;53957;47.222;18.670;2023-03-22T07:48:53;100258.56;;;10.02;100.00
67052;BME280;53957;47.222;18.670;2023-03-22T07:52:21;100252.75;;;10.00;100.00
67052;BME280;53957;47.222;18.670;2023-03-22T07:55:46;100259.84;;;10.10;100.00
67052;BME280;53957;47.222;18.670;2023-03-22T07:59:29;100264.63;;;10.47;100.00
67052;BME280;53957;47.222;18.670;2023-03-22T08:03:12;100253.75;;;10.44;100.00
67052;BME280;53957;47.222;18.670;2023-03-22T08:06:20;100260.28;;;10.22;100.00
67052;BME280;53957;47.222;18.670;2023-03-22T08:09:32;100259.78;;;10.55;100.00
67052;BME280;53957;47.222;18.670;2023-03-22T08:12:35;100256.41;;;10.73;100.00
67052;BME280;53957;47.222;18.670;2023-03-22T08:15:43;100262.78;;;11.26;98.59
67052;BME280;53957;47.222;18.670;2023-03-22T08:18:49;100263.00;;;10.52;99.84
67052;BME280;53957;47.222;18.670;2023-03-22T08:22:00;100277.34;;;10.85;98.16
67052;BME280;53957;47.222;18.670;2023-03-22T08:25:05;100275.00;;;10.78;96.66
67052;BME280;53957;47.222;18.670;2023-03-22T19:00:45;100064.91;;;8.94;82.87
67052;BME280;53957;47.222;18.670;2023-03-22T19:03:56;100063.34;;;8.93;82.24
67052;BME280;53957;47.222;18.670;2023-03-22T19:06:58;100067.56;;;8.94;82.10
67052;BME280;53957;47.222;18.670;2023-03-22T19:10:01;100056.91;;;8.94;81.97
67052;BME280;53957;47.222;18.670;2023-03-22T19:13:07;100059.47;;;9.14;80.86
67052;BME280;53957;47.222;18.670;2023-03-22T19:16:12;100061.13;;;9.05;81.43
67052;BME280;53957;47.222;18.670;2023-03-22T19:19:15;100056.34;;;9.02;81.54
67052;BME280;53957;47.222;18.670;2023-03-22T19:22:18;100058.22;;;9.01;81.50
67052;BME280;53957;47.222;18.670;2023-03-22T19:25:39;100060.84;;;9.07;81.29
67052;BME280;53957;47.222;18.670;2023-03-22T19:28:46;100060.87;;;9.01;82.67
67052;BME280;53957;47.222;18.670;2023-03-22T19:31:48;100054.66;;;9.16;80.77
67052;BME280;53957;47.222;18.670;2023-03-22T19:34:59;100052.69;;;8.93;83.62
67052;BME280;53957;47.222;18.670;2023-03-22T19:38:01;100056.63;;;9.40;79.46
67052;BME280;53957;47.222;18.670;2023-03-22T19:41:03;100061.22;;;9.29;80.87
67052;BME280;53957;47.222;18.670;2023-03-22T19:44:10;100050.91;;;9.23;80.52
67052;BME280;53957;47.222;18.670;2023-03-22T19:47:12;100059.16;;;9.21;80.39
67052;BME280;53957;47.222;18.670;2023-03-22T19:50:34;100054.06;;;8.80;83.80
67052;BME280;53957;47.222;18.670;2023-03-22T19:53:41;100061.13;;;8.50;88.24
67052;BME280;53957;47.222;18.670;2023-03-22T19:57:03;100055.84;;;8.34;91.81
67052;BME280;53957;47.222;18.670;2023-03-22T20:00:06;100050.09;;;8.06;95.94
67052;BME280;53957;47.222;18.670;2023-03-22T20:03:13;100049.06;;;7.82;97.99
67052;BME280;53957;47.222;18.670;2023-03-22T20:06:35;100053.31;;;7.72;98.20
67052;BME280;53957;47.222;18.670;2023-03-22T20:09:38;100060.22;;;7.58;97.49
67052;BME280;53957;47.222;18.670;2023-03-22T20:12:46;100054.66;;;7.49;98.22
67052;BME280;53957;47.222;18.670;2023-03-22T20:15:48;100052.56;;;7.41;99.26
67052;BME280;53957;47.222;18.670;2023-03-22T20:19:10;100045.38;;;7.36;98.73
67052;BME280;53957;47.222;18.670;2023-03-22T20:22:13;100058.34;;;7.17;100.00
67052;BME280;53957;47.222;18.670;2023-03-22T20:25:16;100048.00;;;7.16;100.00
67052;BME280;53957;47.222;18.670;2023-03-22T20:28:22;100054.91;;;7.12;100.00
67052;BME280;53957;47.222;18.670;2023-03-22T20:31:24;100053.84;;;7.07;100.00
67052;BME280;53957;47.222;18.670;2023-03-22T20:34:28;100051.19;;;7.13;100.00
67052;BME280;53957;47.222;18.670;2023-03-22T20:37:49;100064.19;;;7.04;100.00
67052;BME280;53957;47.222;18.670;2023-03-22T20:40:52;100064.16;;;6.93;100.00
67052;BME280;53957;47.222;18.670;2023-03-22T20:43:56;100059.38;;;6.96;100.00
67052;BME280;53957;47.222;18.670;2023-03-22T20:46:58;100064.75;;;7.21;99.94
67052;BME280;53957;47.222;18.670;2023-03-22T20:50:20;100062.81;;;6.96;100.00
67052;BME280;53957;47.222;18.670;2023-03-22T20:53:22;100058.00;;;6.77;100.00
67052;BME280;53957;47.222;18.670;2023-03-22T20:56:43;100057.78;;;6.84;100.00
67052;BME280;53957;47.222;18.670;2023-03-22T20:59:46;100055.91;;;6.80;100.00
67052;BME280;53957;47.222;18.670;2023-03-22T21:03:07;100056.41;;;6.76;100.00
67052;BME280;53957;47.222;18.670;2023-03-22T21:06:17;100056.50;;;7.07;100.00
67052;BME280;53957;47.222;18.670;2023-03-22T21:09:19;100048.19;;;6.73;100.00
67052;BME280;53957;47.222;18.670;2023-03-22T21:12:21;100049.47;;;6.60;100.00
67052;BME280;53957;47.222;18.670;2023-03-22T21:15:25;100052.66;;;6.57;100.00
67052;BME280;53957;47.222;18.670;2023-03-22T21:18:51;100057.13;;;6.46;100.00
67052;BME280;53957;47.222;18.670;2023-03-22T21:22:13;100050.06;;;6.14;100.00
67052;BME280;53957;47.222;18.670;2023-03-22T21:25:21;100052.94;;;6.07;100.00
67052;BME280;53957;47.222;18.670;2023-03-22T21:28:42;100059.81;;;6.08;100.00
67052;BME280;53957;47.222;18.670;2023-03-22T21:31:45;100053.38;;;5.94;100.00
67052;BME280;53957;47.222;18.670;2023-03-22T21:34:47;100059.50;;;6.00;100.00
67052;BME280;53957;47.222;18.670;2023-03-22T21:37:58;100060.22;;;5.90;100.00
67052;BME280;53957;47.222;18.670;2023-03-22T21:41:01;100059.81;;;6.08;100.00
67052;BME280;53957;47.222;18.670;2023-03-22T21:44:06;100055.88;;;6.11;100.00
67052;BME280;53957;47.222;18.670;2023-03-22T21:47:08;100061.75;;;6.23;100.00
67052;BME280;53957;47.222;18.670;2023-03-22T21:50:11;100057.56;;;6.27;100.00
67052;BME280;53957;47.222;18.670;2023-03-22T21:53:14;100059.81;;;6.08;100.00
67052;BME280;53957;47.222;18.670;2023-03-22T21:56:25;100056.31;;;5.97;100.00
67052;BME280;53957;47.222;18.670;2023-03-22T21:59:28;100068.75;;;5.97;100.00
67052;BME280;53957;47.222;18.670;2023-03-22T22:02:30;100070.66;;;6.02;100.00
67052;BME280;53957;47.222;18.670;2023-03-22T22:05:33;100071.78;;;5.78;100.00
67052;BME280;53957;47.222;18.670;2023-03-22T22:08:35;100078.97;;;5.83;100.00
67052;BME280;53957;47.222;18.670;2023-03-22T22:11:38;100070.91;;;6.00;100.00
67052;BME280;53957;47.222;18.670;2023-03-22T22:14:41;100077.94;;;5.84;100.00
67052;BME280;53957;47.222;18.670;2023-03-22T22:17:43;100074.25;;;5.90;100.00
67052;BME280;53957;47.222;18.670;2023-03-22T22:20:45;100070.00;;;5.84;100.00
67052;BME280;53957;47.222;18.670;2023-03-22T22:23:48;100075.47;;;5.77;100.00
67052;BME280;53957;47.222;18.670;2023-03-22T22:26:50;100080.25;;;5.75;100.00
67052;BME280;53957;47.222;18.670;2023-03-22T22:29:52;100069.03;;;5.63;100.00
67052;BME280;53957;47.222;18.670;2023-03-22T22:32:54;100073.44;;;5.52;100.00
67052;BME280;53957;47.222;18.670;2023-03-22T22:35:57;100075.00;;;5.80;100.00
67052;BME280;53957;47.222;18.670;2023-03-22T22:38:59;100078.09;;;5.40;100.00
67052;BME280;53957;47.222;18.670;2023-03-22T22:42:02;100070.56;;;5.26;100.00
67052;BME280;53957;47.222;18.670;2023-03-22T22:45:05;100070.38;;;5.33;100.00
67052;BME280;53957;47.222;18.670;2023-03-22T22:48:07;100074.47;;;5.19;100.00
67052;BME280;53957;47.222;18.670;2023-03-22T22:51:11;100068.13;;;5.20;100.00
67052;BME280;53957;47.222;18.670;2023-03-22T22:54:14;100072.38;;;5.21;100.00
67052;BME280;53957;47.222;18.670;2023-03-22T22:57:16;100073.22;;;5.26;100.00
67052;BME280;53957;47.222;18.670;2023-03-22T23:00:18;100075.59;;;5.28;100.00
67052;BME280;53957;47.222;18.670;2023-03-22T23:03:21;100076.53;;;5.11;100.00
67052;BME280;53957;47.222;18.670;2023-03-22T23:06:23;100069.09;;;4.86;100.00
67052;BME280;53957;47.222;18.670;2023-03-22T23:09:26;100076.50;;;4.84;100.00
67052;BME280;53957;47.222;18.670;2023-03-22T23:12:28;100076.44;;;4.79;100.00
67052;BME280;53957;47.222;18.670;2023-03-22T23:15:31;100072.94;;;4.73;100.00
67052;BME280;53957;47.222;18.670;2023-03-22T23:18:35;100073.88;;;4.62;100.00
67052;BME280;53957;47.222;18.670;2023-03-22T23:21:37;100079.62;;;4.59;100.00
67052;BME280;53957;47.222;18.670;2023-03-22T23:24:47;100080.69;;;4.58;100.00
67052;BME280;53957;47.222;18.670;2023-03-22T23:28:09;100076.62;;;4.50;100.00
67052;BME280;53957;47.222;18.670;2023-03-22T23:31:12;100081.69;;;4.34;100.00
67052;BME280;53957;47.222;18.670;2023-03-22T23:34:16;100076.88;;;4.09;100.00
67052;BME280;53957;47.222;18.670;2023-03-22T23:37:19;100089.59;;;4.12;100.00
67052;BME280;53957;47.222;18.670;2023-03-22T23:40:24;100077.16;;;3.91;100.00
67052;BME280;53957;47.222;18.670;2023-03-22T23:43:44;100073.16;;;3.88;100.00
67052;BME280;53957;47.222;18.670;2023-03-22T23:46:45;100075.72;;;3.83;100.00
67052;BME280;53957;47.222;18.670;2023-03-22T23:50:08;100072.44;;;3.93;100.00
67052;BME280;53957;47.222;18.670;2023-03-22T23:53:31;100081.53;;;4.02;100.00
67052;BME280;53957;47.222;18.670;2023-03-22T23:56:36;100077.53;;;3.82;100.00
67052;BME280;53957;47.222;18.670;2023-03-22T23:59:38;100070.66;;;3.81;100.00
